Terminal Aerodrome Forecast
Issued by NWS

Home | Current Version | Previous Version | Text Only | Print | Product List | Glossary On
Versions: 1 2 3 4 5 6 7 8 9 10 11 12 13 14
000
FTUS42 KMLB 232342
TAFISM
TAF
KISM 232342Z 2400/2424 23008KT P6SM FEW080 SCT110 BKN210
     FM240600 19010KT P6SM SCT025 OVC200
      TEMPO 2409/2412 BKN025
     FM241400 21015G23KT P6SM RA VCTS SCT020 SCT035CB BKN060
      TEMPO 2416/2419 VRB15G30KT 2SM TSRA BKN025CB=

USA.gov is the U.S. government's official web portal to all federal, state and local government web resources and services.